createdAt,value
2019-02-25T00:01:32.867Z,96675.59
2019-02-25T00:04:03.593Z,96682.48
2019-02-25T00:06:34.055Z,96675.25
2019-02-25T00:09:05.583Z,96680.87
2019-02-25T00:11:36.246Z,96683.71
2019-02-25T00:14:07.028Z,96677.56
2019-02-25T00:16:37.600Z,96674.38
2019-02-25T00:19:08.229Z,96670.48
2019-02-25T00:21:38.688Z,96662.92
2019-02-25T00:24:09.280Z,96660.95
2019-02-25T00:26:39.844Z,96666.05
2019-02-25T00:29:10.389Z,96663.55
2019-02-25T00:31:40.907Z,96658.00
2019-02-25T00:34:11.443Z,96660.98
2019-02-25T00:36:41.958Z,96661.45
2019-02-25T00:39:12.601Z,96655.30
2019-02-25T00:41:43.330Z,96657.89
2019-02-25T00:44:13.865Z,96655.09
2019-02-25T00:46:44.370Z,96659.95
2019-02-25T00:49:14.922Z,96658.09
2019-02-25T00:51:45.201Z,96651.02
2019-02-25T00:54:15.773Z,96639.98
2019-02-25T00:56:46.612Z,96642.05
2019-02-25T00:59:17.028Z,96653.59
2019-02-25T01:01:47.456Z,96638.89
2019-02-25T01:04:17.989Z,96632.73
2019-02-25T01:06:48.623Z,96632.89
2019-02-25T01:09:19.018Z,96628.14
2019-02-25T01:11:49.425Z,96629.45
2019-02-25T01:14:19.775Z,96627.45
2019-02-25T01:16:50.555Z,96622.03
2019-02-25T01:19:21.420Z,96620.02
2019-02-25T01:21:51.741Z,96614.66
2019-02-25T01:24:22.270Z,96616.48
2019-02-25T01:26:53.015Z,96613.93
2019-02-25T01:29:23.442Z,96616.39
2019-02-25T01:31:53.863Z,96612.34
2019-02-25T01:34:24.297Z,96614.35
2019-02-25T01:36:54.828Z,96611.11
2019-02-25T01:39:25.482Z,96610.52
2019-02-25T01:41:55.909Z,96614.14
2019-02-25T01:44:26.306Z,96601.59
2019-02-25T01:46:56.647Z,96607.25
2019-02-25T01:49:27.158Z,96610.38
2019-02-25T01:51:57.462Z,96606.98
2019-02-25T01:54:28.116Z,96606.27
2019-02-25T01:56:58.957Z,96606.34
2019-02-25T01:59:29.676Z,96605.56
2019-02-25T02:02:00.009Z,96608.03
2019-02-25T02:04:30.746Z,96614.02
2019-02-25T02:07:01.196Z,96610.81
2019-02-25T02:09:31.499Z,96605.97
2019-02-25T02:12:02.020Z,96605.48
2019-02-25T02:14:32.541Z,96594.89
2019-02-25T02:17:03.617Z,96609.19
2019-02-25T02:19:34.141Z,96601.53
2019-02-25T02:22:05.056Z,96613.62
2019-02-25T02:24:35.466Z,96609.05
2019-02-25T02:27:05.997Z,96607.64
2019-02-25T02:29:36.582Z,96606.74
2019-02-25T02:32:07.340Z,96602.22
2019-02-25T02:34:37.846Z,96606.42
2019-02-25T02:37:08.149Z,96617.31
2019-02-25T02:39:38.554Z,96612.08
2019-02-25T02:42:22.660Z,96599.84
2019-02-25T02:45:31.243Z,96607.52
2019-02-25T02:48:10.797Z,96603.20
2019-02-25T02:50:41.285Z,96603.39
2019-02-25T02:53:11.691Z,96599.63
2019-02-25T02:55:42.484Z,96604.89
2019-02-25T02:58:12.881Z,96609.19
2019-02-25T03:00:43.294Z,96603.36
2019-02-25T03:03:13.703Z,96612.11
2019-02-25T03:05:44.160Z,96617.95
2019-02-25T03:08:14.691Z,96617.41
2019-02-25T03:10:45.363Z,96615.66
2019-02-25T03:13:15.657Z,96615.77
2019-02-25T03:15:46.052Z,96622.16
2019-02-25T03:18:16.840Z,96624.14
2019-02-25T03:20:47.346Z,96620.03
2019-02-25T03:23:17.742Z,96625.29
2019-02-25T03:25:48.172Z,96628.72
2019-02-25T03:28:18.743Z,96623.38
2019-02-25T03:30:49.246Z,96627.59
2019-02-25T03:33:19.805Z,96626.59
2019-02-25T03:35:50.482Z,96625.30
2019-02-25T03:38:20.913Z,96625.83
2019-02-25T03:40:51.346Z,96624.80
2019-02-25T03:43:21.972Z,96625.69
2019-02-25T03:45:52.710Z,96628.39
2019-02-25T03:48:23.019Z,96632.63
2019-02-25T03:50:53.497Z,96632.98
2019-02-25T03:53:23.895Z,96638.05
2019-02-25T03:58:52.531Z,96639.11
2019-02-25T04:01:23.250Z,96644.66
2019-02-25T04:03:59.651Z,96649.79
2019-02-25T04:06:29.992Z,96651.65
2019-02-25T04:09:00.370Z,96650.61
2019-02-25T04:11:30.777Z,96651.24
2019-02-25T04:14:01.169Z,96658.30
2019-02-25T04:16:31.745Z,96651.39
2019-02-25T04:19:02.387Z,96651.59
2019-02-25T04:21:38.490Z,96655.48
2019-02-25T04:24:08.858Z,96660.22
2019-02-25T04:26:39.161Z,96652.16
2019-02-25T04:29:09.591Z,96653.88
2019-02-25T04:31:40.311Z,96649.34
2019-02-25T04:34:10.685Z,96652.17
2019-02-25T04:36:41.413Z,96655.80
2019-02-25T04:39:11.842Z,96663.59
2019-02-25T04:41:42.460Z,96661.98
2019-02-25T04:44:12.880Z,96664.94
2019-02-25T04:47:03.413Z,96666.73
2019-02-25T04:49:33.892Z,96665.91
2019-02-25T04:52:04.212Z,96657.78
2019-02-25T04:54:34.746Z,96665.19
2019-02-25T04:57:04.938Z,96664.30
2019-02-25T04:59:34.817Z,96672.16
2019-02-25T05:02:04.801Z,96666.03
2019-02-25T05:04:34.977Z,96669.86
2019-02-25T05:07:05.180Z,96660.28
2019-02-25T05:09:35.193Z,96664.36
2019-02-25T05:12:05.196Z,96653.38
2019-02-25T05:14:35.375Z,96662.03
2019-02-25T05:17:05.587Z,96655.31
2019-02-25T05:19:35.478Z,96647.80
2019-02-25T05:22:05.465Z,96657.22
2019-02-25T05:24:35.648Z,96660.64
2019-02-25T05:27:05.731Z,96670.06
2019-02-25T05:29:35.935Z,96667.20
2019-02-25T05:32:06.156Z,96665.75
2019-02-25T05:34:36.050Z,96665.41
2019-02-25T05:37:06.142Z,96663.37
2019-02-25T05:39:36.498Z,96659.50
2019-02-25T05:42:07.155Z,96663.37
2019-02-25T05:44:37.333Z,96662.48
2019-02-25T05:47:07.314Z,96662.67
2019-02-25T05:49:37.995Z,96666.22
2019-02-25T05:52:08.228Z,96668.86
2019-02-25T05:54:38.114Z,96664.89
2019-02-25T05:57:08.217Z,96664.76
2019-02-25T05:59:38.420Z,96660.61
2019-02-25T06:02:08.617Z,96666.16
2019-02-25T06:04:38.702Z,96662.90
2019-02-25T06:07:10.465Z,96668.55
2019-02-25T06:09:40.857Z,96667.00
2019-02-25T06:12:10.853Z,96670.48
2019-02-25T06:14:41.054Z,96666.06
2019-02-25T06:17:11.371Z,96673.55
2019-02-25T06:19:41.262Z,96673.13
2019-02-25T06:22:11.351Z,96664.80
2019-02-25T06:24:41.549Z,96666.70
2019-02-25T06:27:11.758Z,96661.38
2019-02-25T06:29:41.635Z,96662.35
2019-02-25T06:32:11.612Z,96657.23
2019-02-25T06:34:41.909Z,96661.23
2019-02-25T06:37:12.120Z,96666.78
2019-02-25T06:39:42.019Z,96665.42
2019-02-25T06:42:11.905Z,96660.59
2019-02-25T06:44:42.127Z,96675.59
2019-02-25T06:47:12.310Z,96677.25
2019-02-25T06:49:42.459Z,96680.88
2019-02-25T06:52:12.352Z,96684.71
2019-02-25T06:54:42.539Z,96684.35
2019-02-25T06:57:12.719Z,96684.11
2019-02-25T06:59:42.621Z,96687.08
2019-02-25T07:02:12.597Z,96685.24
2019-02-25T07:05:07.976Z,96692.63
2019-02-25T07:07:55.706Z,96694.48
2019-02-25T07:10:53.476Z,96686.37
2019-02-25T07:13:44.993Z,96685.20
2019-02-25T07:16:32.865Z,96686.17
2019-02-25T07:19:18.991Z,96686.05
2019-02-25T07:22:07.704Z,96671.65
2019-02-25T07:25:02.782Z,96670.77
2019-02-25T07:27:50.957Z,96661.56
2019-02-25T07:30:54.831Z,96657.91
2019-02-25T07:33:42.190Z,96652.25
2019-02-25T07:36:43.445Z,96642.66
2019-02-25T07:39:35.489Z,96636.00
2019-02-25T07:42:36.486Z,96630.09
2019-02-25T07:45:33.917Z,96624.00
2019-02-25T07:48:29.135Z,96622.84
2019-02-25T07:51:14.332Z,96623.78
2019-02-25T07:54:06.955Z,96606.94
2019-02-25T07:57:11.642Z,96617.45
2019-02-25T07:59:59.443Z,96620.80
2019-02-25T08:02:39.650Z,96615.66
2019-02-25T08:05:37.843Z,96615.16
2019-02-25T08:08:16.336Z,96604.20
2019-02-25T08:11:08.358Z,96602.88
2019-02-25T08:13:53.942Z,96595.14
2019-02-25T08:16:43.265Z,96583.66
2019-02-25T08:19:41.760Z,96568.92
2019-02-25T08:22:45.925Z,96568.50
2019-02-25T08:25:48.399Z,96573.75
2019-02-25T08:28:52.559Z,96573.67
2019-02-25T08:31:47.569Z,96574.25
2019-02-25T08:34:39.210Z,96566.99
2019-02-25T08:37:48.784Z,96575.59
2019-02-25T08:40:38.771Z,96577.27
2019-02-25T08:43:43.540Z,96576.62
2019-02-25T08:46:22.297Z,96573.25
2019-02-25T08:49:05.004Z,96564.81
2019-02-25T08:51:35.307Z,96575.63
2019-02-25T08:54:05.329Z,96576.30
2019-02-25T08:56:35.488Z,96567.12
2019-02-25T08:59:05.682Z,96560.44
2019-02-25T09:01:35.775Z,96563.33
2019-02-25T09:04:05.970Z,96560.78
2019-02-25T09:06:36.169Z,96561.75
2019-02-25T09:09:07.711Z,96569.91
2019-02-25T09:11:37.819Z,96565.36
2019-02-25T09:14:08.018Z,96572.39
2019-02-25T09:16:38.223Z,96566.02
2019-02-25T09:19:08.137Z,96567.72
2019-02-25T09:21:38.022Z,96564.53
2019-02-25T09:24:08.196Z,96567.40
2019-02-25T09:26:38.385Z,96574.36
2019-02-25T09:29:08.378Z,96574.45
2019-02-25T09:31:38.281Z,96542.71
2019-02-25T09:34:08.475Z,96575.06
2019-02-25T09:36:38.663Z,96574.80
2019-02-25T09:39:13.007Z,96578.61
2019-02-25T09:41:43.221Z,96574.98
2019-02-25T09:44:13.219Z,96573.71
2019-02-25T09:46:43.229Z,96565.69
2019-02-25T09:49:13.492Z,96565.70
2019-02-25T09:51:43.997Z,96568.42
2019-02-25T09:54:14.334Z,96564.59
2019-02-25T09:56:44.509Z,96569.23
2019-02-25T09:59:14.801Z,96571.98
2019-02-25T10:01:45.018Z,96573.16
2019-02-25T10:04:15.036Z,96566.23
2019-02-25T10:06:45.013Z,96556.62
2019-02-25T10:09:15.214Z,96550.68
2019-02-25T10:11:45.481Z,96554.36
2019-02-25T10:14:15.356Z,96553.80
2019-02-25T10:16:45.352Z,96550.66
2019-02-25T10:19:15.550Z,96548.97
2019-02-25T10:21:45.638Z,96542.97
2019-02-25T10:24:17.151Z,96538.64
2019-02-25T10:26:47.419Z,96531.55
2019-02-25T10:29:17.409Z,96526.78
2019-02-25T10:31:47.404Z,96522.23
2019-02-25T10:34:18.052Z,96518.05
2019-02-25T10:36:50.169Z,96517.20
2019-02-25T10:39:20.067Z,96506.50
2019-02-25T10:41:51.171Z,96505.31
2019-02-25T10:44:21.878Z,96500.70
2019-02-25T10:46:52.450Z,96496.62
2019-02-25T10:49:24.425Z,96493.77
2019-02-25T10:51:55.527Z,96489.05
2019-02-25T10:54:26.009Z,96484.96
2019-02-25T10:57:02.952Z,96489.22
2019-02-25T10:59:34.648Z,96483.92
2019-02-25T11:02:05.088Z,96486.77
2019-02-25T11:04:35.093Z,96482.13
2019-02-25T11:07:07.281Z,96486.63
2019-02-25T11:09:51.372Z,96483.01
2019-02-25T11:12:23.549Z,96479.49
2019-02-25T11:14:53.385Z,96482.70
2019-02-25T11:17:24.432Z,96476.50
2019-02-25T11:19:56.569Z,96460.56
2019-02-25T11:22:26.976Z,96458.95
2019-02-25T11:24:57.802Z,96462.50
2019-02-25T11:27:28.588Z,96451.38
2019-02-25T11:29:59.793Z,96447.11
2019-02-25T11:32:30.056Z,96450.80
2019-02-25T11:35:01.299Z,96442.69
2019-02-25T11:37:31.925Z,96433.34
2019-02-25T11:40:04.279Z,96433.30
2019-02-25T11:42:34.411Z,96427.35
2019-02-25T11:45:05.680Z,96423.63
2019-02-25T11:47:36.058Z,96418.59
2019-02-25T11:50:06.776Z,96416.83
2019-02-25T11:52:36.990Z,96418.44
2019-02-25T11:55:08.055Z,96413.16
2019-02-25T11:57:38.277Z,96414.39
2019-02-25T12:00:14.945Z,96409.48
2019-02-25T12:02:45.558Z,96411.98
2019-02-25T12:05:17.188Z,96405.55
2019-02-25T12:07:48.033Z,96407.80
2019-02-25T12:10:18.664Z,96401.72
2019-02-25T12:12:48.688Z,96408.69
2019-02-25T12:15:18.882Z,96401.88
2019-02-25T12:17:49.282Z,96402.45
2019-02-25T12:20:19.823Z,96396.23
2019-02-25T12:22:50.167Z,96399.96
2019-02-25T12:25:20.416Z,96416.56
2019-02-25T12:27:50.962Z,96395.74
2019-02-25T12:30:21.595Z,96386.27
2019-02-25T12:32:52.129Z,96391.59
2019-02-25T12:35:22.859Z,96380.84
2019-02-25T12:37:53.590Z,96376.45
2019-02-25T12:40:24.169Z,96378.49
2019-02-25T12:42:54.272Z,96380.14
2019-02-25T12:45:24.559Z,96379.06
2019-02-25T12:47:55.088Z,96375.59
2019-02-25T12:50:25.491Z,96379.54
2019-02-25T12:52:56.318Z,96372.94
2019-02-25T12:55:27.158Z,96375.79
2019-02-25T12:57:57.697Z,96372.64
2019-02-25T13:00:27.686Z,96374.45
2019-02-25T13:02:58.035Z,96365.53
2019-02-25T13:05:28.027Z,96375.91
2019-02-25T13:07:57.936Z,96377.28
2019-02-25T13:10:28.225Z,96377.55
2019-02-25T13:12:58.427Z,96372.31
2019-02-25T13:15:28.533Z,96375.49
2019-02-25T13:18:00.130Z,96371.72
2019-02-25T13:20:30.843Z,96370.50
2019-02-25T13:23:01.039Z,96361.88
2019-02-25T13:25:30.946Z,96359.94
2019-02-25T13:28:02.084Z,96357.87
2019-02-25T13:30:32.783Z,96355.40
2019-02-25T13:33:03.053Z,96350.55
2019-02-25T13:35:33.060Z,96344.14
2019-02-25T13:38:02.972Z,96346.27
2019-02-25T13:40:33.544Z,96343.63
2019-02-25T13:43:03.618Z,96338.30
2019-02-25T13:45:33.891Z,96328.44
2019-02-25T13:48:04.105Z,96329.88
2019-02-25T13:50:34.195Z,96333.74
2019-02-25T13:53:04.629Z,96324.09
2019-02-25T13:55:35.016Z,96328.75
2019-02-25T13:58:05.389Z,96318.34
2019-02-25T14:00:35.648Z,96310.67
2019-02-25T14:03:05.862Z,96314.20
2019-02-25T14:05:36.158Z,96311.30
2019-02-25T14:08:06.363Z,96312.37
2019-02-25T14:10:36.374Z,96306.23
2019-02-25T14:13:06.690Z,96305.00
2019-02-25T14:15:36.889Z,96306.73
2019-02-25T14:18:07.164Z,96309.28
2019-02-25T14:20:37.062Z,96305.79
2019-02-25T14:23:07.269Z,96297.97
2019-02-25T14:25:38.389Z,96300.72
2019-02-25T14:28:09.048Z,96309.34
2019-02-25T14:30:40.026Z,96307.61
2019-02-25T14:33:12.672Z,96308.28
2019-02-25T14:35:42.263Z,96301.26
2019-02-25T14:38:15.892Z,96308.38
2019-02-25T14:40:46.601Z,96305.06
2019-02-25T14:43:17.676Z,96305.83
2019-02-25T14:45:53.089Z,96308.73
2019-02-25T14:48:21.048Z,96308.17
2019-02-25T14:50:52.130Z,96309.29
2019-02-25T14:53:22.588Z,96311.64
2019-02-25T14:55:55.281Z,96307.62
2019-02-25T14:58:24.636Z,96304.47
2019-02-25T15:00:55.006Z,96314.42
2019-02-25T15:03:27.006Z,96316.19
2019-02-25T15:05:59.146Z,96311.03
2019-02-25T15:08:30.627Z,96317.13
2019-02-25T15:11:02.404Z,96314.22
2019-02-25T15:13:35.048Z,96319.46
2019-02-25T15:16:05.331Z,96328.02
2019-02-25T15:18:35.818Z,96330.00
2019-02-25T15:21:11.687Z,96327.08
2019-02-25T15:23:42.773Z,96325.77
2019-02-25T15:26:15.096Z,96332.33
2019-02-25T15:28:44.894Z,96330.93
2019-02-25T15:31:16.502Z,96332.36
2019-02-25T15:33:47.200Z,96332.78
2019-02-25T15:36:17.876Z,96340.95
2019-02-25T15:38:49.313Z,96340.56
2019-02-25T15:41:19.449Z,96339.64
2019-02-25T15:43:49.730Z,96336.00
2019-02-25T15:46:22.204Z,96333.21
2019-02-25T15:48:51.691Z,96130.74
2019-02-25T15:51:22.085Z,96326.41
2019-02-25T15:53:54.103Z,96331.75
2019-02-25T15:56:24.643Z,96328.73
2019-02-25T15:58:54.524Z,96334.45
2019-02-25T16:01:59.961Z,96328.50
2019-02-25T16:04:31.860Z,96324.93
2019-02-25T16:07:05.647Z,96322.80
2019-02-25T16:09:34.024Z,96330.78
2019-02-25T16:12:05.871Z,96327.64
2019-02-25T16:14:38.865Z,96327.64
2019-02-25T16:17:08.727Z,96320.75
2019-02-25T16:19:46.442Z,96316.07
2019-02-25T16:22:11.848Z,96312.76
2019-02-25T16:24:43.606Z,96310.08
2019-02-25T16:27:14.435Z,96310.19
2019-02-25T16:29:44.725Z,96305.30
2019-02-25T16:32:16.903Z,96302.41
2019-02-25T16:34:46.734Z,96302.66
2019-02-25T16:48:24.222Z,96313.12
2019-02-25T16:50:52.469Z,96306.84
2019-02-25T16:53:22.740Z,96307.00
2019-02-25T16:55:53.132Z,96311.08
2019-02-25T16:58:23.149Z,96312.34
2019-02-25T17:00:56.022Z,96310.04
2019-02-25T17:03:25.672Z,96309.50
2019-02-25T17:05:55.764Z,96311.81
2019-02-25T17:08:26.566Z,96315.88
2019-02-25T17:10:59.818Z,96313.16
2019-02-25T17:13:32.465Z,96314.20
2019-02-25T17:16:02.704Z,96311.04
2019-02-25T17:18:33.315Z,96316.03
2019-02-25T17:21:05.174Z,96312.11
2019-02-25T17:23:37.045Z,96311.70
2019-02-25T17:26:07.719Z,96315.09
2019-02-25T17:28:39.139Z,96309.52
2019-02-25T17:31:11.127Z,96305.77
2019-02-25T17:33:41.056Z,96310.14
2019-02-25T17:36:12.417Z,96308.55
2019-02-25T17:38:44.919Z,96296.61
2019-02-25T17:41:15.075Z,96292.20
2019-02-25T17:43:45.069Z,96293.34
2019-02-25T17:46:15.275Z,96290.20
2019-02-25T17:48:46.131Z,96287.36
2019-02-25T17:51:18.347Z,96288.14
2019-02-25T17:53:49.919Z,96292.33
2019-02-25T17:56:20.710Z,96288.92
2019-02-25T17:58:52.016Z,96281.45
2019-02-25T18:01:24.179Z,96284.31
2019-02-25T18:03:53.971Z,96278.15
2019-02-25T18:06:29.467Z,96281.31
2019-02-25T18:08:57.684Z,96281.70
2019-02-25T18:11:28.102Z,96282.11
2019-02-25T18:13:58.264Z,96288.73
2019-02-25T18:16:28.464Z,96280.42
2019-02-25T18:18:58.666Z,96281.52
2019-02-25T18:21:29.036Z,96281.20
2019-02-25T18:23:59.129Z,96287.06
2019-02-25T18:26:31.102Z,96289.30
2019-02-25T18:29:01.514Z,96284.27
2019-02-25T18:31:32.094Z,96287.11
2019-02-25T18:34:02.302Z,96284.17
2019-02-25T18:36:33.215Z,96285.59
2019-02-25T18:39:03.776Z,96291.17
2019-02-25T18:41:34.370Z,96294.34
2019-02-25T18:44:05.311Z,96296.57
2019-02-25T18:46:36.560Z,96310.89
2019-02-25T18:49:07.374Z,96312.82
2019-02-25T18:51:39.473Z,96320.16
2019-02-25T18:54:09.858Z,96315.03
2019-02-25T18:56:42.058Z,96318.54
2019-02-25T18:59:15.523Z,96315.14
2019-02-25T19:01:45.359Z,96319.68
2019-02-25T19:04:17.579Z,96325.00
2019-02-25T19:06:47.919Z,96330.94
2019-02-25T19:09:25.110Z,96324.34
2019-02-25T19:11:56.163Z,96321.22
2019-02-25T19:14:28.614Z,96314.73
2019-02-25T19:16:59.788Z,96317.95
2019-02-25T19:19:33.722Z,96315.80
2019-02-25T19:22:02.116Z,96305.71
2019-02-25T19:24:33.602Z,96298.74
2019-02-25T19:27:06.578Z,96298.58
2019-02-25T19:29:36.813Z,96290.89
2019-02-25T19:32:07.004Z,96282.53
2019-02-25T19:34:39.233Z,96280.35
2019-02-25T19:37:10.340Z,96274.49
2019-02-25T19:39:42.098Z,96273.16
2019-02-25T19:42:15.451Z,96270.50
2019-02-25T19:44:44.514Z,96271.49
2019-02-25T19:47:16.732Z,96275.17
2019-02-25T19:49:46.680Z,96278.31
2019-02-25T19:52:17.274Z,96284.57
2019-02-25T19:54:48.788Z,96281.61
2019-02-25T19:57:21.017Z,96284.65
2019-02-25T19:59:52.894Z,96290.31
2019-02-25T20:02:24.661Z,96276.91
2019-02-25T20:04:54.772Z,96265.04
2019-02-25T20:07:27.925Z,96263.81
2019-02-25T20:09:57.860Z,96255.95
2019-02-25T20:12:28.396Z,96248.42
2019-02-25T20:14:58.660Z,96244.89
2019-02-25T20:17:30.635Z,96253.16
2019-02-25T20:20:02.952Z,96240.05
2019-02-25T20:22:34.473Z,96244.67
2019-02-25T20:25:05.852Z,96250.19
2019-02-25T20:27:36.287Z,96242.73
2019-02-25T20:30:08.175Z,96238.00
2019-02-25T20:32:38.976Z,96239.40
2019-02-25T20:35:14.008Z,96243.33
2019-02-25T20:37:43.714Z,96240.64
2019-02-25T20:40:17.079Z,96236.66
2019-02-25T20:42:49.077Z,96227.23
2019-02-25T20:45:23.001Z,96226.16
2019-02-25T20:47:52.245Z,96225.22
2019-02-25T20:50:23.583Z,96220.73
2019-02-25T20:52:53.691Z,96219.03
2019-02-25T20:55:24.988Z,96215.41
2019-02-25T20:57:55.976Z,96210.13
2019-02-25T21:00:26.383Z,96210.94
2019-02-25T21:02:56.569Z,96206.58
2019-02-25T21:05:27.369Z,96205.98
2019-02-25T21:07:59.745Z,96210.06
2019-02-25T21:10:32.600Z,96199.95
2019-02-25T21:13:02.316Z,96189.58
2019-02-25T21:15:35.468Z,96185.87
2019-02-25T21:18:07.530Z,96183.64
2019-02-25T21:20:36.323Z,96176.50
2019-02-25T21:23:08.366Z,96172.84
2019-02-25T21:25:38.743Z,96174.66
2019-02-25T21:28:09.564Z,96173.09
2019-02-25T21:30:41.794Z,96171.98
2019-02-25T21:33:15.317Z,95923.42
2019-02-25T21:35:44.510Z,96165.98
2019-02-25T21:38:14.593Z,96161.17
2019-02-25T21:40:46.168Z,96148.94
2019-02-25T21:43:18.577Z,96151.67
2019-02-25T21:45:50.426Z,96141.43
2019-02-25T21:48:23.050Z,96135.29
2019-02-25T21:50:52.009Z,96126.14
2019-02-25T21:53:21.901Z,96135.28
2019-02-25T21:55:53.557Z,96122.51
2019-02-25T21:58:25.433Z,96137.05
2019-02-25T22:00:55.854Z,96131.43
2019-02-25T22:03:25.891Z,96129.66
2019-02-25T22:05:58.775Z,96129.92
2019-02-25T22:08:29.047Z,96135.03
2019-02-25T22:11:11.996Z,96136.41
2019-02-25T22:13:31.712Z,96140.20
2019-02-25T22:16:03.429Z,96141.94
2019-02-25T22:18:34.152Z,96146.09
2019-02-25T22:21:09.237Z,96138.68
2019-02-25T22:23:37.313Z,96136.88
2019-02-25T22:26:07.433Z,96132.30
2019-02-25T22:28:39.418Z,96127.45
2019-02-25T22:31:10.807Z,96127.39
2019-02-25T22:33:41.240Z,96125.19
2019-02-25T22:36:11.449Z,96119.16
2019-02-25T22:38:41.412Z,96118.09
2019-02-25T22:41:11.307Z,96116.08
2019-02-25T22:43:43.736Z,96117.44
2019-02-25T22:46:13.406Z,96117.12
2019-02-25T22:48:45.075Z,96121.36
2019-02-25T22:51:15.026Z,96118.70
2019-02-25T22:53:45.216Z,96121.80
2019-02-25T22:56:15.871Z,96124.09
2019-02-25T22:58:47.088Z,96125.78
2019-02-25T23:01:18.115Z,96123.84
2019-02-25T23:03:50.540Z,96121.87
2019-02-25T23:06:21.322Z,96125.68
2019-02-25T23:08:53.401Z,96122.45
2019-02-25T23:11:26.119Z,96117.50
2019-02-25T23:13:56.501Z,96116.88
2019-02-25T23:16:26.683Z,96121.83
2019-02-25T23:18:56.667Z,96115.02
2019-02-25T23:21:28.793Z,96110.89
2019-02-25T23:24:00.488Z,96112.48
2019-02-25T23:26:30.497Z,96108.07
2019-02-25T23:29:00.692Z,96113.62
2019-02-25T23:31:30.759Z,96119.55
2019-02-25T23:34:00.946Z,96110.69
2019-02-25T23:36:31.139Z,96106.44
2019-02-25T23:39:01.703Z,96105.94
2019-02-25T23:41:36.274Z,95876.38
2019-02-25T23:44:04.672Z,96099.98
2019-02-25T23:46:37.152Z,96101.50
2019-02-25T23:49:06.683Z,96099.38
2019-02-25T23:51:37.750Z,96099.10
2019-02-25T23:54:11.845Z,96098.19
2019-02-25T23:56:40.410Z,96095.88
2019-02-25T23:59:12.696Z,96093.45
